Time;durP1;ratioP1;P1;durP2;ratioP2;P2;SDS_P1;SDS_P2;PMS_P1;PMS_P2;Temp;Humidity;BMP_temperature;BMP_pressure;BME280_temperature;BME280_humidity;BME280_pressure;Samples;Min_cycle;Max_cycle;Signal;HPM_P1;HPM_P2
2021/05/13 00:00:14;;;;;;;3.75;3.53;;;;;;;;;;5010948;28;20177;-45
2021/05/13 00:02:40;;;;;;;2.93;2.83;;;;;;;;;;5011611;28;20226;-45
2021/05/13 00:05:05;;;;;;;2.90;2.80;;;;;;;;;;5011226;28;20842;-44
2021/05/13 00:07:31;;;;;;;2.80;2.70;;;;;;;;;;5011859;28;20702;-45
2021/05/13 00:09:56;;;;;;;3.25;3.13;;;;;;;;;;5010921;28;20594;-45
2021/05/13 00:12:47;;;;;;;3.65;3.45;;;;;;;;;;5010772;28;20330;-48
2021/05/13 00:15:25;;;;;;;2.90;2.80;;;;;;;;;;5010325;28;20196;-44
2021/05/13 00:17:51;;;;;;;3.30;3.10;;;;;;;;;;5011011;28;20588;-44
2021/05/13 00:20:19;;;;;;;2.87;2.77;;;;;;;;;;5011189;28;20696;-44
2021/05/13 00:22:44;;;;;;;2.80;2.70;;;;;;;;;;5011141;28;20181;-44
2021/05/13 00:25:09;;;;;;;3.05;2.90;;;;;;;;;;5010719;28;20592;-44
2021/05/13 00:27:35;;;;;;;3.30;3.20;;;;;;;;;;5010497;28;20273;-44
2021/05/13 00:30:00;;;;;;;3.40;3.20;;;;;;;;;;5010782;28;20173;-44
2021/05/13 00:32:25;;;;;;;4.20;4.00;;;;;;;;;;5011190;28;20597;-48
2021/05/13 00:34:50;;;;;;;3.60;3.40;;;;;;;;;;5010576;28;20221;-44
2021/05/13 00:37:15;;;;;;;3.70;3.50;;;;;;;;;;5010674;28;20173;-44
2021/05/13 00:39:40;;;;;;;3.33;3.13;;;;;;;;;;5010643;28;20166;-45
2021/05/13 00:42:05;;;;;;;4.20;3.95;;;;;;;;;;5010567;28;20865;-44
2021/05/13 00:44:32;;;;;;;3.70;3.50;;;;;;;;;;5010623;28;20176;-44
2021/05/13 00:46:58;;;;;;;4.03;3.73;;;;;;;;;;5008935;28;20668;-45
2021/05/13 00:49:23;;;;;;;2.65;2.55;;;;;;;;;;5010022;28;20647;-44
2021/05/13 00:51:48;;;;;;;2.97;2.87;;;;;;;;;;5010372;28;20203;-45
2021/05/13 00:54:17;;;;;;;2.80;2.70;;;;;;;;;;5010369;28;20199;-45
2021/05/13 00:56:42;;;;;;;3.30;3.10;;;;;;;;;;5010321;28;20173;-44
2021/05/13 00:59:09;;;;;;;3.27;3.07;;;;;;;;;;5009904;28;20609;-44
2021/05/13 01:01:48;;;;;;;3.80;3.57;;;;;;;;;;5009842;28;20586;-43
2021/05/13 01:04:15;;;;;;;3.13;2.93;;;;;;;;;;5009913;28;20934;-44
2021/05/13 01:06:40;;;;;;;2.90;2.80;;;;;;;;;;5010302;28;21198;-44
2021/05/13 01:09:08;;;;;;;2.80;2.70;;;;;;;;;;5009889;28;20964;-44
2021/05/13 01:11:35;;;;;;;3.13;2.97;;;;;;;;;;5010255;28;20197;-44
2021/05/13 01:14:10;;;;;;;2.97;2.77;;;;;;;;;;5009888;28;21209;-44
2021/05/13 01:16:48;;;;;;;3.10;2.80;;;;;;;;;;5009993;28;20999;-43
2021/05/13 01:19:15;;;;;;;2.27;2.17;;;;;;;;;;4991350;28;20581;-44
2021/05/13 01:21:41;;;;;;;2.40;2.30;;;;;;;;;;5009565;28;21142;-44
2021/05/13 01:24:06;;;;;;;2.17;2.07;;;;;;;;;;5009842;28;20607;-44
2021/05/13 01:26:31;;;;;;;2.70;2.60;;;;;;;;;;5010303;28;20255;-44
2021/05/13 01:28:58;;;;;;;2.13;2.03;;;;;;;;;;5005621;28;20590;-44
2021/05/13 01:31:23;;;;;;;1.90;1.80;;;;;;;;;;5009422;28;20213;-45
2021/05/13 01:33:48;;;;;;;1.70;1.70;;;;;;;;;;5009735;28;21219;-45
2021/05/13 01:36:13;;;;;;;2.25;2.15;;;;;;;;;;5008977;28;20185;-44
2021/05/13 01:38:39;;;;;;;2.10;2.00;;;;;;;;;;5009619;28;20170;-44
2021/05/13 01:41:04;;;;;;;2.00;1.90;;;;;;;;;;5009466;28;20224;-44
2021/05/13 01:43:30;;;;;;;2.10;2.00;;;;;;;;;;5009101;28;20228;-44
2021/05/13 01:45:57;;;;;;;2.50;2.40;;;;;;;;;;5009185;28;20177;-44
2021/05/13 01:48:22;;;;;;;2.60;2.50;;;;;;;;;;5008526;28;20679;-45
2021/05/13 01:50:48;;;;;;;2.97;2.77;;;;;;;;;;5009525;28;20685;-44
2021/05/13 01:53:13;;;;;;;2.37;2.23;;;;;;;;;;5009029;28;20196;-44
2021/05/13 01:55:38;;;;;;;2.37;2.27;;;;;;;;;;5009268;28;20209;-44
2021/05/13 01:58:04;;;;;;;2.13;2.03;;;;;;;;;;5008908;28;20185;-44
2021/05/13 02:00:30;;;;;;;2.10;2.00;;;;;;;;;;5009156;28;20177;-44
2021/05/13 02:02:55;;;;;;;2.17;2.07;;;;;;;;;;5009106;28;20664;-44
2021/05/13 02:05:21;;;;;;;2.20;2.10;;;;;;;;;;5008771;28;20607;-44
2021/05/13 02:07:47;;;;;;;1.80;1.70;;;;;;;;;;5009408;28;20172;-45
2021/05/13 02:10:12;;;;;;;1.80;1.70;;;;;;;;;;5008794;28;20229;-44
2021/05/13 02:12:38;;;;;;;1.77;1.70;;;;;;;;;;5008944;28;20182;-45
2021/05/13 02:15:05;;;;;;;1.90;1.80;;;;;;;;;;5009457;28;20185;-45
2021/05/13 02:17:30;;;;;;;1.67;1.57;;;;;;;;;;5008585;28;20188;-44
2021/05/13 02:19:55;;;;;;;1.70;1.60;;;;;;;;;;5008465;28;20592;-44
2021/05/13 02:22:20;;;;;;;1.60;1.50;;;;;;;;;;5008828;28;20725;-44
2021/05/13 02:24:45;;;;;;;1.60;1.60;;;;;;;;;;5009008;28;20182;-45
2021/05/13 02:27:10;;;;;;;1.48;1.48;;;;;;;;;;5008726;28;20200;-44
2021/05/13 02:29:36;;;;;;;1.30;1.30;;;;;;;;;;5008529;28;20173;-44
2021/05/13 02:32:01;;;;;;;1.60;1.50;;;;;;;;;;5008699;28;20223;-45
2021/05/13 02:34:26;;;;;;;3.50;1.53;;;;;;;;;;5008294;28;21578;-44
2021/05/13 02:36:51;;;;;;;2.10;2.00;;;;;;;;;;5008637;28;20197;-44
2021/05/13 02:39:16;;;;;;;1.50;1.40;;;;;;;;;;5007984;28;20173;-45
2021/05/13 02:41:43;;;;;;;1.90;1.80;;;;;;;;;;5008889;28;20177;-44
2021/05/13 02:44:08;;;;;;;1.93;1.80;;;;;;;;;;5008128;28;20177;-44
2021/05/13 02:46:34;;;;;;;1.97;1.87;;;;;;;;;;5007642;28;20596;-45
2021/05/13 02:48:59;;;;;;;2.97;2.70;;;;;;;;;;5008064;28;20175;-44
2021/05/13 02:51:24;;;;;;;2.85;2.70;;;;;;;;;;5008190;28;20184;-44
2021/05/13 02:53:50;;;;;;;2.50;2.40;;;;;;;;;;5008947;28;20208;-44
2021/05/13 02:56:15;;;;;;;3.40;3.17;;;;;;;;;;5008241;28;20581;-45
2021/05/13 02:58:40;;;;;;;5.10;4.70;;;;;;;;;;5008649;28;20636;-45
2021/05/13 03:01:10;;;;;;;4.73;4.43;;;;;;;;;;5008072;28;20161;-45
2021/05/13 03:03:35;;;;;;;5.07;4.70;;;;;;;;;;5008078;28;20205;-44
2021/05/13 03:06:00;;;;;;;5.05;4.75;;;;;;;;;;5008018;28;20651;-45
2021/05/13 03:08:25;;;;;;;5.80;5.30;;;;;;;;;;5008166;28;20192;-45
2021/05/13 03:10:50;;;;;;;5.00;4.70;;;;;;;;;;5012014;28;20738;-44
2021/05/13 03:13:22;;;;;;;6.57;6.07;;;;;;;;;;5012067;28;20205;-44
2021/05/13 03:15:48;;;;;;;6.70;6.20;;;;;;;;;;5011771;28;20185;-45
2021/05/13 03:18:13;;;;;;;6.63;6.13;;;;;;;;;;5011935;28;20613;-45
2021/05/13 03:20:41;;;;;;;7.13;6.53;;;;;;;;;;5011932;28;20187;-45
2021/05/13 03:23:08;;;;;;;6.93;6.43;;;;;;;;;;5012526;28;20184;-45
2021/05/13 03:25:36;;;;;;;8.97;8.07;;;;;;;;;;5011913;28;20600;-45
2021/05/13 03:28:08;;;;;;;9.20;8.50;;;;;;;;;;5012320;28;20675;-45
2021/05/13 03:30:34;;;;;;;7.83;7.23;;;;;;;;;;5011399;28;21556;-44
2021/05/13 03:33:00;;;;;;;8.10;7.50;;;;;;;;;;5012133;28;20659;-45
2021/05/13 03:35:25;;;;;;;10.17;9.37;;;;;;;;;;5011674;28;20591;-44
2021/05/13 03:37:51;;;;;;;8.55;7.85;;;;;;;;;;5012194;28;20174;-45
2021/05/13 03:40:16;;;;;;;8.83;8.13;;;;;;;;;;5010812;28;20194;-44
2021/05/13 03:42:41;;;;;;;8.98;8.07;;;;;;;;;;5011956;28;20172;-44
2021/05/13 03:45:06;;;;;;;10.50;9.70;;;;;;;;;;5011230;28;20175;-45
2021/05/13 03:47:31;;;;;;;10.73;9.87;;;;;;;;;;5011467;28;20178;-45
2021/05/13 03:49:57;;;;;;;9.70;9.00;;;;;;;;;;5011634;28;20252;-44
2021/05/13 03:52:22;;;;;;;10.65;9.77;;;;;;;;;;5011345;28;20192;-45
2021/05/13 03:54:47;;;;;;;9.50;8.80;;;;;;;;;;5011490;28;20225;-44
2021/05/13 03:57:12;;;;;;;9.68;8.90;;;;;;;;;;5011896;28;20260;-45
2021/05/13 03:59:39;;;;;;;14.70;13.20;;;;;;;;;;5010779;28;20368;-45
2021/05/13 04:02:38;;;;;;;9.70;9.00;;;;;;;;;;5008781;28;20185;-45
2021/05/13 04:04:56;;;;;;;10.53;9.73;;;;;;;;;;5010689;28;20608;-45
2021/05/13 04:07:22;;;;;;;10.50;9.70;;;;;;;;;;5011384;28;20599;-45
2021/05/13 04:09:47;;;;;;;10.70;9.80;;;;;;;;;;5010767;28;20228;-46
2021/05/13 04:12:12;;;;;;;11.13;10.13;;;;;;;;;;5011211;28;20197;-45
2021/05/13 04:14:37;;;;;;;10.60;9.77;;;;;;;;;;5010059;28;20606;-45
2021/05/13 04:17:06;;;;;;;10.90;10.00;;;;;;;;;;5011227;28;20724;-45
2021/05/13 04:19:31;;;;;;;9.90;9.10;;;;;;;;;;5010941;28;20574;-44
2021/05/13 04:21:56;;;;;;;11.02;10.02;;;;;;;;;;5011002;28;20685;-44
2021/05/13 04:24:21;;;;;;;9.90;9.10;;;;;;;;;;5010879;28;20585;-45
2021/05/13 04:26:47;;;;;;;10.87;10.07;;;;;;;;;;5010878;28;20174;-45
2021/05/13 04:29:12;;;;;;;11.00;10.10;;;;;;;;;;5011446;28;20285;-45
2021/05/13 04:31:37;;;;;;;12.30;11.20;;;;;;;;;;5010664;28;20198;-45
2021/05/13 04:34:03;;;;;;;10.77;9.97;;;;;;;;;;5010924;28;20300;-45
2021/05/13 04:36:28;;;;;;;10.43;9.53;;;;;;;;;;5010828;28;20508;-44
2021/05/13 04:38:53;;;;;;;10.87;9.97;;;;;;;;;;5010872;28;20173;-45
2021/05/13 04:41:19;;;;;;;12.25;11.15;;;;;;;;;;5010120;28;20201;-45
2021/05/13 04:43:44;;;;;;;10.87;9.87;;;;;;;;;;5010469;28;20255;-44
2021/05/13 04:46:09;;;;;;;11.23;10.17;;;;;;;;;;5010128;28;20236;-44
2021/05/13 04:51:15;;;;;;;12.53;11.33;;;;;;;;;;5010658;28;20273;-44
2021/05/13 04:53:40;;;;;;;11.50;10.57;;;;;;;;;;5010019;28;20742;-44
2021/05/13 04:56:05;;;;;;;12.82;11.68;;;;;;;;;;5009945;28;20646;-45
2021/05/13 04:58:30;;;;;;;11.75;10.57;;;;;;;;;;5010754;28;20184;-45
2021/05/13 05:00:55;;;;;;;12.18;10.80;;;;;;;;;;5009748;28;20254;-44
2021/05/13 05:03:20;;;;;;;11.60;10.50;;;;;;;;;;5010190;28;20247;-45
2021/05/13 05:05:45;;;;;;;13.33;12.13;;;;;;;;;;5010003;28;20647;-44
2021/05/13 05:08:11;;;;;;;12.18;11.18;;;;;;;;;;5010379;28;20212;-44
2021/05/13 05:10:36;;;;;;;12.70;11.60;;;;;;;;;;5009599;28;20224;-44
2021/05/13 05:13:01;;;;;;;14.13;12.73;;;;;;;;;;5010136;28;20236;-45
2021/05/13 05:15:26;;;;;;;12.95;11.75;;;;;;;;;;5009938;28;20224;-44
2021/05/13 05:17:51;;;;;;;10.55;9.75;;;;;;;;;;5009970;28;20173;-45
2021/05/13 05:20:16;;;;;;;12.07;11.07;;;;;;;;;;5009873;28;20201;-44
2021/05/13 05:22:42;;;;;;;11.60;10.60;;;;;;;;;;5010260;28;20736;-44
2021/05/13 05:25:07;;;;;;;12.27;11.23;;;;;;;;;;5009517;28;20180;-44
2021/05/13 05:27:32;;;;;;;12.40;11.40;;;;;;;;;;5010034;28;20532;-44
2021/05/13 05:29:57;;;;;;;9.87;9.17;;;;;;;;;;5009994;28;20165;-44
2021/05/13 05:32:22;;;;;;;9.98;9.23;;;;;;;;;;5008857;28;20188;-44
2021/05/13 05:34:47;;;;;;;9.95;9.15;;;;;;;;;;5009252;28;20201;-44
2021/05/13 05:37:13;;;;;;;10.15;9.35;;;;;;;;;;5010312;28;20177;-44
2021/05/13 05:39:38;;;;;;;10.83;9.97;;;;;;;;;;5009311;28;20207;-44
2021/05/13 05:42:03;;;;;;;8.87;8.07;;;;;;;;;;5009614;28;20173;-44
2021/05/13 05:44:28;;;;;;;9.47;8.87;;;;;;;;;;5009206;28;20186;-44
2021/05/13 05:46:53;;;;;;;12.25;11.15;;;;;;;;;;5009753;28;20186;-46
2021/05/13 05:49:19;;;;;;;8.87;8.17;;;;;;;;;;5009167;28;20598;-44
2021/05/13 05:51:44;;;;;;;9.47;8.67;;;;;;;;;;5009401;28;20713;-44
2021/05/13 05:54:09;;;;;;;10.25;9.45;;;;;;;;;;5009413;28;20208;-44
2021/05/13 05:56:34;;;;;;;7.43;6.82;;;;;;;;;;5009100;28;20181;-44
2021/05/13 05:59:00;;;;;;;7.28;6.78;;;;;;;;;;5009026;28;20174;-44
2021/05/13 06:01:25;;;;;;;7.47;6.97;;;;;;;;;;5010012;28;20176;-45
2021/05/13 06:03:51;;;;;;;7.13;6.50;;;;;;;;;;5009159;28;20596;-45
2021/05/13 06:06:16;;;;;;;5.20;4.90;;;;;;;;;;5009516;28;20569;-44
2021/05/13 06:08:41;;;;;;;5.35;4.95;;;;;;;;;;5010231;28;20629;-45
2021/05/13 06:11:06;;;;;;;6.13;5.57;;;;;;;;;;5028312;28;20252;-44
2021/05/13 06:13:31;;;;;;;5.07;4.73;;;;;;;;;;5027305;28;20207;-45
2021/05/13 06:15:57;;;;;;;5.57;5.13;;;;;;;;;;5028797;28;20172;-45
2021/05/13 06:18:22;;;;;;;4.93;4.63;;;;;;;;;;5006446;28;20177;-45
2021/05/13 06:20:47;;;;;;;4.60;4.30;;;;;;;;;;5008521;28;20169;-45
2021/05/13 06:23:12;;;;;;;3.40;3.20;;;;;;;;;;5008357;28;20233;-45
2021/05/13 06:25:37;;;;;;;4.30;3.90;;;;;;;;;;5007045;28;20880;-44
2021/05/13 06:28:03;;;;;;;3.70;3.50;;;;;;;;;;5008831;28;20630;-45
2021/05/13 06:30:28;;;;;;;3.83;3.60;;;;;;;;;;5007264;28;20181;-45
2021/05/13 06:32:53;;;;;;;3.60;3.35;;;;;;;;;;5006105;28;20251;-46
2021/05/13 06:35:19;;;;;;;3.40;3.20;;;;;;;;;;5008429;28;20166;-46
2021/05/13 06:37:45;;;;;;;2.93;2.73;;;;;;;;;;5008193;28;20185;-46
2021/05/13 06:40:10;;;;;;;2.57;2.40;;;;;;;;;;5008642;28;20596;-45
2021/05/13 06:42:36;;;;;;;3.30;3.10;;;;;;;;;;5008017;28;20172;-46
2021/05/13 06:45:01;;;;;;;2.23;2.13;;;;;;;;;;5002032;28;20195;-46
2021/05/13 06:47:26;;;;;;;1.80;1.70;;;;;;;;;;4997526;28;20178;-46
2021/05/13 06:49:52;;;;;;;1.98;1.80;;;;;;;;;;4988821;28;20185;-46
2021/05/13 06:52:17;;;;;;;2.10;2.00;;;;;;;;;;4988737;28;20230;-46
2021/05/13 06:54:42;;;;;;;2.20;2.10;;;;;;;;;;4988334;28;20264;-45
2021/05/13 06:57:08;;;;;;;2.37;2.00;;;;;;;;;;5005544;28;20192;-46
2021/05/13 06:59:33;;;;;;;2.00;1.90;;;;;;;;;;5008107;28;20220;-46
2021/05/13 07:01:58;;;;;;;2.70;2.50;;;;;;;;;;5008017;28;20177;-46
2021/05/13 07:04:24;;;;;;;2.50;2.30;;;;;;;;;;5008621;28;20268;-46
2021/05/13 07:06:49;;;;;;;2.20;2.10;;;;;;;;;;5008550;28;20186;-46
2021/05/13 07:09:15;;;;;;;2.07;1.97;;;;;;;;;;5008125;28;20229;-45
2021/05/13 07:11:40;;;;;;;2.17;2.07;;;;;;;;;;5008020;28;20267;-45
2021/05/13 07:14:05;;;;;;;2.20;2.10;;;;;;;;;;5008141;28;20224;-45
2021/05/13 07:16:32;;;;;;;2.57;2.40;;;;;;;;;;5007888;28;20219;-45
2021/05/13 07:18:58;;;;;;;2.00;1.90;;;;;;;;;;5008113;28;20179;-45
2021/05/13 07:21:23;;;;;;;2.80;2.60;;;;;;;;;;5008141;28;20597;-46
2021/05/13 07:23:49;;;;;;;2.38;2.17;;;;;;;;;;5007583;28;21019;-46
2021/05/13 07:26:14;;;;;;;2.40;2.30;;;;;;;;;;5007798;28;20683;-46
2021/05/13 07:28:40;;;;;;;2.50;2.40;;;;;;;;;;5007990;28;20271;-46
2021/05/13 07:31:06;;;;;;;1.80;1.70;;;;;;;;;;5008020;28;20690;-46
2021/05/13 07:33:31;;;;;;;2.60;2.40;;;;;;;;;;5008108;28;20624;-46
2021/05/13 07:35:56;;;;;;;2.40;2.30;;;;;;;;;;5007680;28;20248;-46
2021/05/13 07:38:21;;;;;;;2.50;2.40;;;;;;;;;;5008148;28;20209;-45
2021/05/13 07:40:47;;;;;;;2.45;2.25;;;;;;;;;;5007989;28;20551;-45
2021/05/13 07:43:12;;;;;;;3.20;3.00;;;;;;;;;;5008410;28;20663;-45
2021/05/13 07:45:42;;;;;;;3.05;2.85;;;;;;;;;;5007303;28;20176;-46
2021/05/13 07:48:07;;;;;;;3.43;3.23;;;;;;;;;;5008486;28;20170;-46
2021/05/13 07:50:34;;;;;;;3.17;2.97;;;;;;;;;;5005398;28;21050;-45
2021/05/13 07:52:59;;;;;;;4.30;3.23;;;;;;;;;;5003496;28;20173;-46
2021/05/13 07:55:30;;;;;;;2.70;2.50;;;;;;;;;;5006164;28;20607;-45
2021/05/13 07:57:56;;;;;;;2.77;2.60;;;;;;;;;;5006696;28;20705;-45
2021/05/13 08:00:21;;;;;;;3.50;3.30;;;;;;;;;;5008414;28;20593;-46
2021/05/13 08:02:46;;;;;;;2.67;2.53;;;;;;;;;;5008210;28;20169;-46
2021/05/13 08:05:12;;;;;;;3.28;3.08;;;;;;;;;;5008448;28;20257;-45
2021/05/13 08:07:37;;;;;;;3.10;2.90;;;;;;;;;;5008289;28;20181;-45
2021/05/13 08:10:02;;;;;;;3.63;3.43;;;;;;;;;;5007634;28;20225;-46
2021/05/13 08:12:28;;;;;;;3.70;3.50;;;;;;;;;;5008380;28;20176;-46
2021/05/13 08:14:53;;;;;;;3.58;3.38;;;;;;;;;;5007700;28;20254;-47
2021/05/13 08:17:18;;;;;;;3.70;3.47;;;;;;;;;;5003381;28;20311;-46
2021/05/13 08:19:43;;;;;;;3.60;3.30;;;;;;;;;;5011225;28;20555;-46
2021/05/13 08:22:08;;;;;;;3.85;3.65;;;;;;;;;;5015374;28;20277;-46
2021/05/13 08:24:33;;;;;;;4.38;4.07;;;;;;;;;;5010014;28;20683;-46
2021/05/13 08:27:01;;;;;;;5.80;5.20;;;;;;;;;;5009385;28;20201;-45
2021/05/13 08:29:26;;;;;;;4.80;4.40;;;;;;;;;;5009337;28;20264;-46
2021/05/13 08:31:51;;;;;;;4.50;4.20;;;;;;;;;;5012261;28;21080;-45
2021/05/13 08:34:16;;;;;;;4.90;4.60;;;;;;;;;;5024834;28;20203;-45
2021/05/13 08:36:41;;;;;;;4.15;3.85;;;;;;;;;;5022574;28;20179;-45
2021/05/13 08:39:07;;;;;;;4.32;4.00;;;;;;;;;;5009865;28;20183;-45
2021/05/13 08:41:32;;;;;;;4.47;4.17;;;;;;;;;;5017186;28;20267;-46
2021/05/13 08:43:57;;;;;;;4.33;3.93;;;;;;;;;;5012008;28;20188;-45
2021/05/13 08:46:22;;;;;;;4.50;4.20;;;;;;;;;;5016719;28;20212;-46
2021/05/13 08:48:48;;;;;;;4.13;3.83;;;;;;;;;;5025155;28;20187;-45
2021/05/13 08:51:14;;;;;;;4.40;4.10;;;;;;;;;;5019619;28;20658;-45
2021/05/13 08:53:53;;;;;;;3.63;3.43;;;;;;;;;;5019545;28;20235;-45
2021/05/13 08:56:18;;;;;;;4.17;3.87;;;;;;;;;;5011759;28;20262;-46
2021/05/13 08:58:44;;;;;;;4.17;3.87;;;;;;;;;;5011711;28;21196;-46
2021/05/13 09:01:16;;;;;;;4.97;4.60;;;;;;;;;;5003928;28;20178;-47
2021/05/13 09:03:41;;;;;;;4.30;4.00;;;;;;;;;;5006434;28;20184;-46
2021/05/13 09:06:07;;;;;;;3.70;3.50;;;;;;;;;;5005567;28;20750;-45
2021/05/13 09:08:33;;;;;;;4.80;4.40;;;;;;;;;;5006617;28;20197;-46
2021/05/13 09:11:11;;;;;;;4.50;4.20;;;;;;;;;;5006593;28;20235;-46
2021/05/13 09:13:36;;;;;;;4.33;4.03;;;;;;;;;;5005755;28;20231;-46
2021/05/13 09:16:21;;;;;;;5.50;5.10;;;;;;;;;;5006755;28;20643;-45
2021/05/13 09:18:47;;;;;;;4.30;4.00;;;;;;;;;;5008497;28;20209;-46
2021/05/13 09:21:12;;;;;;;4.05;3.70;;;;;;;;;;5009050;28;20646;-46
2021/05/13 09:23:37;;;;;;;4.05;3.85;;;;;;;;;;5008710;28;20248;-45
2021/05/13 09:26:09;;;;;;;3.43;3.23;;;;;;;;;;5008715;28;20457;-45
2021/05/13 09:28:35;;;;;;;3.83;3.53;;;;;;;;;;4999463;28;20180;-46
2021/05/13 09:31:00;;;;;;;3.70;3.50;;;;;;;;;;5008410;28;20714;-46
2021/05/13 09:33:27;;;;;;;4.00;3.70;;;;;;;;;;5008561;28;20631;-46
2021/05/13 09:35:52;;;;;;;3.67;3.47;;;;;;;;;;4989195;28;20165;-46
2021/05/13 09:38:17;;;;;;;4.27;3.97;;;;;;;;;;5001927;28;20580;-45
2021/05/13 09:40:49;;;;;;;3.65;3.45;;;;;;;;;;5008602;28;20231;-46
2021/05/13 09:43:16;;;;;;;4.97;4.57;;;;;;;;;;5006889;28;20220;-46
2021/05/13 09:45:41;;;;;;;4.03;3.70;;;;;;;;;;5007965;28;20576;-46
2021/05/13 09:48:07;;;;;;;4.70;4.38;;;;;;;;;;5007669;28;20637;-46
2021/05/13 09:50:32;;;;;;;4.37;4.07;;;;;;;;;;5008115;28;20316;-46
2021/05/13 09:52:58;;;;;;;3.60;3.40;;;;;;;;;;5008116;28;20183;-45
2021/05/13 09:55:28;;;;;;;4.73;4.43;;;;;;;;;;5007737;28;20643;-46
2021/05/13 09:57:55;;;;;;;4.80;4.40;;;;;;;;;;5007720;28;20568;-45
2021/05/13 10:00:29;;;;;;;4.67;4.37;;;;;;;;;;5007705;28;20673;-46
2021/05/13 10:02:55;;;;;;;3.80;3.60;;;;;;;;;;5007174;28;20604;-45
2021/05/13 10:05:20;;;;;;;4.20;3.90;;;;;;;;;;5007555;28;20678;-45
2021/05/13 10:07:45;;;;;;;5.03;4.70;;;;;;;;;;5007035;28;20166;-45
2021/05/13 10:10:10;;;;;;;5.25;4.85;;;;;;;;;;5006725;28;20360;-46
2021/05/13 10:12:36;;;;;;;4.77;4.37;;;;;;;;;;5007419;28;20632;-46
2021/05/13 10:15:02;;;;;;;5.50;5.10;;;;;;;;;;5007353;28;20201;-46
2021/05/13 10:17:27;;;;;;;4.10;3.80;;;;;;;;;;4988366;28;20178;-45
2021/05/13 10:19:54;;;;;;;4.00;3.70;;;;;;;;;;5007792;28;20949;-45
2021/05/13 10:22:20;;;;;;;3.73;3.53;;;;;;;;;;5002670;28;20194;-45
2021/05/13 10:24:46;;;;;;;3.80;3.60;;;;;;;;;;4988546;28;21125;-45
2021/05/13 10:27:16;;;;;;;4.23;3.93;;;;;;;;;;4988245;28;20181;-45
2021/05/13 10:29:41;;;;;;;4.23;3.83;;;;;;;;;;5002473;28;20590;-44
2021/05/13 10:32:18;;;;;;;3.70;3.40;;;;;;;;;;5008521;28;20580;-44
2021/05/13 10:34:43;;;;;;;3.37;3.17;;;;;;;;;;5008304;28;20208;-45
2021/05/13 10:37:13;;;;;;;3.95;3.65;;;;;;;;;;5008491;28;20583;-45
2021/05/13 10:39:58;;;;;;;4.23;3.83;;;;;;;;;;5007523;28;20217;-45
2021/05/13 10:42:28;;;;;;;4.67;4.27;;;;;;;;;;5008312;28;20580;-46
2021/05/13 10:44:53;;;;;;;4.27;3.97;;;;;;;;;;5007950;28;20674;-46
2021/05/13 10:47:26;;;;;;;4.53;4.15;;;;;;;;;;5007240;28;20654;-46
2021/05/13 10:49:51;;;;;;;4.50;4.07;;;;;;;;;;5007631;28;20181;-46
2021/05/13 10:52:28;;;;;;;4.30;4.00;;;;;;;;;;5007674;28;20573;-46
2021/05/13 10:54:53;;;;;;;4.80;4.30;;;;;;;;;;5007773;28;20218;-46
2021/05/13 10:57:20;;;;;;;4.87;4.47;;;;;;;;;;5007886;28;20666;-46
2021/05/13 11:00:04;;;;;;;3.90;3.60;;;;;;;;;;5007122;28;20261;-45
2021/05/13 11:02:36;;;;;;;4.50;4.10;;;;;;;;;;5008315;28;20948;-44
2021/05/13 11:05:01;;;;;;;4.33;4.03;;;;;;;;;;5008211;28;20947;-46
2021/05/13 11:07:29;;;;;;;4.20;3.85;;;;;;;;;;5008229;28;20642;-46
2021/05/13 11:09:54;;;;;;;5.00;4.60;;;;;;;;;;5007663;28;20726;-43
2021/05/13 11:12:24;;;;;;;4.20;3.80;;;;;;;;;;5007981;28;20594;-42
2021/05/13 11:17:39;;;;;;;4.90;4.50;;;;;;;;;;5007573;28;20996;-44
2021/05/13 11:20:21;;;;;;;3.93;3.63;;;;;;;;;;5007718;28;20588;-45
2021/05/13 11:22:56;;;;;;;4.30;4.00;;;;;;;;;;5008055;28;20585;-45
2021/05/13 11:25:22;;;;;;;4.60;4.30;;;;;;;;;;5007589;28;20574;-46
2021/05/13 11:27:47;;;;;;;5.20;4.80;;;;;;;;;;5007912;28;20606;-45
2021/05/13 11:30:13;;;;;;;4.30;3.90;;;;;;;;;;4997857;28;20181;-45
2021/05/13 11:32:38;;;;;;;4.30;4.00;;;;;;;;;;4998743;28;20322;-44
2021/05/13 11:35:03;;;;;;;3.87;3.60;;;;;;;;;;5001168;28;20209;-45
2021/05/13 11:37:36;;;;;;;4.00;3.80;;;;;;;;;;5015741;28;20265;-45
2021/05/13 11:40:21;;;;;;;4.13;3.83;;;;;;;;;;4991913;28;20632;-45
2021/05/13 11:42:46;;;;;;;4.60;4.30;;;;;;;;;;4992225;28;21184;-45
2021/05/13 11:45:19;;;;;;;4.07;3.77;;;;;;;;;;4991622;28;20572;-45
2021/05/13 11:47:44;;;;;;;4.47;4.17;;;;;;;;;;4991359;28;20166;-44
2021/05/13 11:50:23;;;;;;;5.47;4.33;;;;;;;;;;4991756;28;20920;-44
2021/05/13 11:53:08;;;;;;;4.33;3.93;;;;;;;;;;4991675;28;20698;-44
2021/05/13 11:55:33;;;;;;;4.83;4.43;;;;;;;;;;4991720;28;20680;-44
2021/05/13 11:57:58;;;;;;;5.27;4.87;;;;;;;;;;4991300;28;20669;-45
2021/05/13 12:00:23;;;;;;;4.85;4.40;;;;;;;;;;4991401;28;20173;-45
2021/05/13 12:02:48;;;;;;;5.80;5.30;;;;;;;;;;4991770;28;20187;-46
2021/05/13 12:05:14;;;;;;;5.65;5.10;;;;;;;;;;4990975;28;20594;-46
2021/05/13 12:07:39;;;;;;;4.90;4.38;;;;;;;;;;4991063;28;20260;-46
2021/05/13 12:10:04;;;;;;;4.60;4.20;;;;;;;;;;4990614;28;20238;-44
2021/05/13 12:12:29;;;;;;;4.93;4.60;;;;;;;;;;4991132;28;20672;-45
2021/05/13 12:14:54;;;;;;;4.72;4.32;;;;;;;;;;4991385;28;20205;-44
2021/05/13 12:17:20;;;;;;;6.70;6.20;;;;;;;;;;4991464;28;20178;-44
2021/05/13 12:19:45;;;;;;;5.27;4.90;;;;;;;;;;4991380;28;20629;-45
2021/05/13 12:22:12;;;;;;;14.90;13.50;;;;;;;;;;4995989;28;20212;-44
2021/05/13 12:24:41;;;;;;;4.87;4.53;;;;;;;;;;5008909;28;20184;-45
2021/05/13 12:27:06;;;;;;;4.53;4.23;;;;;;;;;;5009827;28;20737;-44
2021/05/13 12:29:32;;;;;;;4.20;3.90;;;;;;;;;;5010429;28;20594;-45
2021/05/13 12:31:57;;;;;;;4.60;4.20;;;;;;;;;;5010262;28;20177;-45
2021/05/13 12:34:35;;;;;;;4.85;4.38;;;;;;;;;;5010165;28;20249;-45
2021/05/13 12:37:00;;;;;;;5.47;4.90;;;;;;;;;;5009423;28;20168;-46
2021/05/13 12:39:36;;;;;;;4.93;4.63;;;;;;;;;;5009739;28;20573;-45
2021/05/13 12:42:01;;;;;;;7.17;6.57;;;;;;;;;;5010114;28;20180;-46
2021/05/13 12:44:27;;;;;;;5.97;5.57;;;;;;;;;;5009867;28;20594;-45
2021/05/13 12:46:54;;;;;;;4.80;4.40;;;;;;;;;;5009803;28;20184;-45
2021/05/13 12:49:24;;;;;;;6.60;6.00;;;;;;;;;;5010166;28;21111;-47
2021/05/13 12:51:58;;;;;;;5.90;5.50;;;;;;;;;;5010521;28;20586;-46
2021/05/13 12:54:23;;;;;;;6.17;5.57;;;;;;;;;;5009618;28;20734;-45
2021/05/13 12:56:48;;;;;;;6.47;5.93;;;;;;;;;;5010330;28;20738;-47
2021/05/13 12:59:13;;;;;;;5.82;5.43;;;;;;;;;;5009362;28;20640;-46
2021/05/13 13:01:40;;;;;;;6.85;6.35;;;;;;;;;;5002560;28;20228;-46
2021/05/13 13:04:07;;;;;;;8.10;7.50;;;;;;;;;;4996867;28;20222;-46
2021/05/13 13:06:33;;;;;;;7.30;6.67;;;;;;;;;;5009975;28;20646;-46
2021/05/13 13:08:58;;;;;;;7.47;6.87;;;;;;;;;;4996069;28;20686;-45
2021/05/13 13:11:34;;;;;;;7.87;7.10;;;;;;;;;;4990297;28;20641;-46
2021/05/13 13:14:03;;;;;;;8.00;7.30;;;;;;;;;;4990093;28;20213;-47
2021/05/13 13:16:33;;;;;;;8.10;7.50;;;;;;;;;;4990230;28;20764;-48
2021/05/13 13:19:09;;;;;;;8.37;7.00;;;;;;;;;;4989927;28;20581;-45
2021/05/13 13:21:35;;;;;;;6.93;6.23;;;;;;;;;;5007152;28;20997;-46
2021/05/13 13:24:13;;;;;;;7.47;6.80;;;;;;;;;;5009530;28;21066;-45
2021/05/13 13:26:41;;;;;;;8.77;6.97;;;;;;;;;;5007600;28;20602;-45
2021/05/13 13:29:06;;;;;;;6.50;6.00;;;;;;;;;;5009777;28;20584;-47
2021/05/13 13:31:36;;;;;;;6.70;6.22;;;;;;;;;;5009398;28;20591;-47
2021/05/13 13:34:02;;;;;;;6.83;6.33;;;;;;;;;;5009501;28;20208;-48
2021/05/13 13:36:27;;;;;;;8.63;6.60;;;;;;;;;;5009520;28;20584;-47
2021/05/13 13:38:52;;;;;;;7.95;7.25;;;;;;;;;;5009246;28;20311;-46
2021/05/13 13:41:17;;;;;;;7.57;6.97;;;;;;;;;;5009282;28;20169;-45
2021/05/13 13:43:42;;;;;;;8.88;7.57;;;;;;;;;;5009450;28;20203;-46
2021/05/13 13:46:07;;;;;;;8.53;7.93;;;;;;;;;;5009193;28;20643;-46
2021/05/13 13:48:33;;;;;;;7.25;6.63;;;;;;;;;;5009105;28;20220;-46
2021/05/13 13:50:59;;;;;;;7.93;7.33;;;;;;;;;;5009359;28;20177;-45
2021/05/13 13:53:25;;;;;;;8.00;7.30;;;;;;;;;;5008241;28;20258;-46
2021/05/13 13:55:51;;;;;;;7.90;7.20;;;;;;;;;;5008890;28;20612;-46
2021/05/13 13:58:16;;;;;;;8.00;7.40;;;;;;;;;;4990442;28;21033;-45
2021/05/13 14:00:42;;;;;;;8.77;8.07;;;;;;;;;;5004738;28;20185;-47
2021/05/13 14:03:08;;;;;;;8.57;7.77;;;;;;;;;;5004499;28;20190;-45
2021/05/13 14:05:33;;;;;;;9.70;8.83;;;;;;;;;;5008994;28;20944;-46
2021/05/13 14:07:58;;;;;;;9.60;8.70;;;;;;;;;;5008429;28;20176;-46
2021/05/13 14:10:26;;;;;;;8.63;7.93;;;;;;;;;;5008488;28;20283;-46
2021/05/13 14:12:51;;;;;;;7.70;7.00;;;;;;;;;;5009171;28;20170;-44
2021/05/13 14:15:16;;;;;;;9.47;8.60;;;;;;;;;;5008351;28;20634;-49
2021/05/13 14:17:41;;;;;;;8.20;7.60;;;;;;;;;;5008808;28;20578;-48
2021/05/13 14:20:08;;;;;;;8.10;7.50;;;;;;;;;;5008037;28;20173;-47
2021/05/13 14:22:33;;;;;;;7.50;6.90;;;;;;;;;;5008154;28;20170;-47
2021/05/13 14:24:58;;;;;;;7.85;7.25;;;;;;;;;;5008379;28;20591;-46
2021/05/13 14:27:23;;;;;;;7.07;6.57;;;;;;;;;;5008051;28;20319;-47
2021/05/13 14:29:48;;;;;;;7.22;6.63;;;;;;;;;;5008095;28;20265;-48
2021/05/13 14:32:14;;;;;;;6.67;6.27;;;;;;;;;;5008210;28;20186;-48
2021/05/13 14:34:41;;;;;;;7.40;6.80;;;;;;;;;;5008462;28;20291;-48
2021/05/13 14:37:06;;;;;;;5.90;5.50;;;;;;;;;;5008062;28;20180;-46
2021/05/13 14:39:31;;;;;;;6.40;5.80;;;;;;;;;;5007741;28;20571;-46
2021/05/13 14:41:58;;;;;;;5.60;5.20;;;;;;;;;;5008809;28;20187;-47